Time;durP1;ratioP1;P1;durP2;ratioP2;P2;SDS_P1;SDS_P2;PMS_P1;PMS_P2;Temp;Humidity;BMP_temperature;BMP_pressure;BME280_temperature;BME280_humidity;BME280_pressure;Samples;Min_cycle;Max_cycle;Signal;HPM_P1;HPM_P2
2023/01/22 00:02:20;;;;;;;7.95;4.00;;;;;;;9.74;100.00;100008.13;5088704;28;20457;-28
2023/01/22 00:04:45;;;;;;;9.55;5.03;;;;;;;9.97;100.00;100029.69;5092029;28;20620;-28
2023/01/22 00:07:11;;;;;;;7.35;3.75;;;;;;;9.88;100.00;100038.97;5093128;28;20626;-27
2023/01/22 00:09:36;;;;;;;9.15;4.45;;;;;;;9.93;100.00;100049.81;5074738;28;20028;-30
2023/01/22 00:12:02;;;;;;;9.57;4.85;;;;;;;9.85;100.00;100052.72;5093351;28;20039;-28
2023/01/22 00:14:27;;;;;;;8.57;4.28;;;;;;;9.85;100.00;100063.38;5093215;28;20031;-32
2023/01/22 00:16:53;;;;;;;7.70;4.20;;;;;;;9.72;100.00;100053.59;5074434;28;20027;-28
2023/01/22 00:19:18;;;;;;;12.18;4.82;;;;;;;9.79;100.00;100064.25;5074673;28;20069;-27
2023/01/22 00:21:44;;;;;;;11.00;6.00;;;;;;;9.72;100.00;100069.56;5092779;28;20115;-28
2023/01/22 00:24:10;;;;;;;12.15;5.68;;;;;;;9.64;100.00;100069.81;5092918;28;20032;-28
2023/01/22 00:26:35;;;;;;;12.13;5.97;;;;;;;9.73;100.00;100065.09;5092837;28;20130;-28
2023/01/22 00:29:02;;;;;;;11.88;4.60;;;;;;;9.73;100.00;100059.75;5074318;28;20028;-29
2023/01/22 00:31:27;;;;;;;13.52;6.13;;;;;;;9.60;100.00;100056.16;5092090;28;20028;-29
2023/01/22 00:33:53;;;;;;;14.82;6.32;;;;;;;9.58;100.00;100063.53;5092743;28;20035;-28
2023/01/22 00:36:20;;;;;;;19.50;7.70;;;;;;;9.65;100.00;100074.13;5092406;28;20100;-27
2023/01/22 00:38:46;;;;;;;12.00;5.80;;;;;;;9.64;100.00;100091.97;5074251;28;20085;-28
2023/01/22 00:41:13;;;;;;;15.90;6.68;;;;;;;9.83;100.00;100084.09;5092387;28;20103;-28
2023/01/22 00:43:39;;;;;;;11.23;5.72;;;;;;;9.76;100.00;100072.63;5092335;28;20488;-27
2023/01/22 00:46:09;;;;;;;11.20;5.72;;;;;;;9.89;100.00;100069.06;5092189;28;20020;-28
2023/01/22 00:48:35;;;;;;;13.52;5.88;;;;;;;9.56;100.00;100068.25;5074099;28;20044;-34
2023/01/22 00:51:00;;;;;;;10.23;4.82;;;;;;;9.48;100.00;100047.19;5074325;28;20028;-28
2023/01/22 00:53:25;;;;;;;9.32;4.38;;;;;;;9.40;100.00;100039.44;5073857;28;20115;-28
2023/01/22 00:55:52;;;;;;;10.07;4.38;;;;;;;9.48;100.00;100057.84;5092117;28;20051;-29
2023/01/22 00:58:18;;;;;;;15.18;4.28;;;;;;;9.29;100.00;100042.75;5092318;28;20036;-31
2023/01/22 01:00:43;;;;;;;12.52;4.40;;;;;;;9.41;100.00;100044.53;5092186;28;20460;-28
2023/01/22 01:03:28;;;;;;;11.57;4.15;;;;;;;9.36;100.00;100054.22;5092236;28;20028;-28
2023/01/22 01:05:54;;;;;;;10.35;4.10;;;;;;;9.22;100.00;100048.91;5092024;28;20055;-28
2023/01/22 01:08:20;;;;;;;11.93;4.53;;;;;;;9.58;100.00;100068.84;5073867;28;20118;-29
2023/01/22 01:10:46;;;;;;;9.25;3.55;;;;;;;9.59;100.00;100067.81;5091832;28;20028;-32
2023/01/22 01:13:11;;;;;;;12.23;4.25;;;;;;;9.36;100.00;100040.91;5091817;28;20854;-30
2023/01/22 01:15:37;;;;;;;9.90;3.78;;;;;;;9.47;100.00;100058.84;5090970;28;20032;-29
2023/01/22 01:18:03;;;;;;;11.45;3.97;;;;;;;9.55;100.00;100055.94;5091938;28;20054;-29
2023/01/22 01:20:28;;;;;;;10.02;3.65;;;;;;;9.61;100.00;100079.06;5092105;28;20059;-30
2023/01/22 01:22:54;;;;;;;10.63;4.13;;;;;;;9.58;100.00;100070.66;5091359;28;20411;-29
2023/01/22 01:25:19;;;;;;;7.78;3.38;;;;;;;9.65;100.00;100085.59;5091498;28;20419;-28
2023/01/22 01:27:44;;;;;;;9.65;3.35;;;;;;;9.57;100.00;100085.84;5091267;28;20059;-28
2023/01/22 01:30:10;;;;;;;12.20;3.72;;;;;;;9.64;100.00;100110.59;5092049;28;20080;-29
2023/01/22 01:32:35;;;;;;;12.43;3.85;;;;;;;9.58;100.00;100084.81;5091812;28;20526;-29
2023/01/22 01:35:01;;;;;;;10.13;3.28;;;;;;;9.49;100.00;100110.03;5091143;28;20032;-29
2023/01/22 01:37:26;;;;;;;9.82;3.80;;;;;;;9.43;100.00;100077.09;5091055;28;20036;-28
2023/01/22 01:39:52;;;;;;;10.93;3.22;;;;;;;9.72;100.00;100124.69;5073227;28;20120;-31
2023/01/22 01:42:29;;;;;;;8.10;3.25;;;;;;;9.73;100.00;100123.69;5091041;28;20043;-29
2023/01/22 01:45:30;;;;;;;10.70;4.15;;;;;;;9.80;100.00;100127.91;5091316;28;20036;-28
2023/01/22 01:48:21;;;;;;;11.02;3.85;;;;;;;9.59;100.00;100121.06;5058545;28;20044;-29
2023/01/22 01:50:58;;;;;;;8.80;3.80;;;;;;;9.50;100.00;100105.53;5091149;28;20047;-31
2023/01/22 01:53:24;;;;;;;15.10;4.50;;;;;;;9.69;100.00;100111.81;5090942;28;20024;-29
2023/01/22 01:55:50;;;;;;;12.07;5.03;;;;;;;9.75;100.00;100106.44;5091430;28;20453;-29
2023/01/22 01:58:20;;;;;;;10.35;3.55;;;;;;;9.57;100.00;100107.13;5072656;28;20024;-32
2023/01/22 02:00:52;;;;;;;10.10;4.25;;;;;;;9.56;100.00;100086.03;5072720;28;20051;-28
2023/01/22 02:03:19;;;;;;;10.07;4.00;;;;;;;9.51;100.00;100086.69;5090825;28;20035;-29
2023/01/22 02:05:44;;;;;;;11.63;4.60;;;;;;;9.17;100.00;100055.88;5090932;28;20427;-28
2023/01/22 02:08:10;;;;;;;14.77;6.60;;;;;;;9.23;100.00;100081.66;5090774;28;20024;-29
2023/01/22 02:10:37;;;;;;;10.48;4.15;;;;;;;9.15;100.00;100073.91;5072554;28;20476;-30
2023/01/22 02:13:07;;;;;;;19.98;5.38;;;;;;;9.45;100.00;100106.16;5072213;28;20028;-29
2023/01/22 02:15:33;;;;;;;9.68;4.40;;;;;;;9.38;100.00;100108.84;5090229;28;20496;-29
2023/01/22 02:17:58;;;;;;;11.75;4.53;;;;;;;9.32;100.00;100093.72;5090519;28;20039;-29
2023/01/22 02:20:23;;;;;;;10.82;4.13;;;;;;;9.72;100.00;100122.03;5090697;28;20028;-28
2023/01/22 02:22:49;;;;;;;10.23;4.15;;;;;;;9.37;100.00;100091.22;5090095;28;20051;-32
2023/01/22 02:25:15;;;;;;;10.70;4.13;;;;;;;9.50;100.00;100109.03;5090490;28;20038;-28
2023/01/22 02:27:41;;;;;;;11.70;4.72;;;;;;;9.64;100.00;100136.38;5089470;28;20028;-31
2023/01/22 02:30:07;;;;;;;14.32;4.28;;;;;;;9.56;100.00;100124.16;5090098;28;20034;-29
2023/01/22 02:32:32;;;;;;;9.60;4.50;;;;;;;9.64;100.00;100147.03;5090540;28;20032;-28
2023/01/22 02:34:58;;;;;;;14.05;5.05;;;;;;;9.48;100.00;100142.19;5090417;28;20081;-29
2023/01/22 02:37:23;;;;;;;11.75;4.80;;;;;;;9.49;100.00;100133.19;5071835;28;20028;-31
2023/01/22 02:39:48;;;;;;;14.38;5.95;;;;;;;9.65;100.00;100144.19;5090163;28;20024;-29
2023/01/22 02:42:14;;;;;;;11.35;4.47;;;;;;;9.70;100.00;100161.38;5071743;28;20573;-30
2023/01/22 02:44:39;;;;;;;12.75;5.00;;;;;;;9.49;100.00;100165.94;5071720;28;20058;-31
2023/01/22 02:47:05;;;;;;;14.38;5.03;;;;;;;9.60;100.00;100162.66;5090164;28;20028;-31
2023/01/22 02:49:30;;;;;;;12.18;4.90;;;;;;;9.60;100.00;100146.66;5090087;28;20028;-28
2023/01/22 02:51:56;;;;;;;12.75;4.95;;;;;;;9.62;100.00;100160.59;5089915;28;20376;-31
2023/01/22 02:54:21;;;;;;;14.15;5.68;;;;;;;9.79;100.00;100162.78;5090125;28;20548;-29
2023/01/22 02:56:47;;;;;;;15.95;6.30;;;;;;;9.63;100.00;100151.56;5089641;28;20480;-28
2023/01/22 02:59:13;;;;;;;15.10;5.43;;;;;;;9.65;100.00;100144.19;5089777;28;20080;-36
2023/01/22 03:01:38;;;;;;;11.10;4.70;;;;;;;9.43;100.00;100118.88;5089758;28;20024;-28
2023/01/22 03:04:10;;;;;;;15.40;4.70;;;;;;;9.19;100.00;100131.84;5090028;28;20055;-29
2023/01/22 03:06:38;;;;;;;12.02;4.65;;;;;;;9.13;100.00;100129.97;5089622;28;20476;-29
2023/01/22 03:09:03;;;;;;;;;;;;;;;9.27;100.00;100156.56;5090235;28;20047;-29
2023/01/22 03:11:30;;;;;;;30.73;13.13;;;;;;;9.45;100.00;100148.75;5071230;28;20387;-32
2023/01/22 03:22:09;;;;;;;14.10;5.40;;;;;;;9.56;100.00;100161.44;5089342;28;20117;-31
2023/01/22 03:24:35;;;;;;;13.20;4.82;;;;;;;9.67;100.00;100132.50;5089427;28;20712;-30
2023/01/22 03:27:01;;;;;;;15.75;5.03;;;;;;;9.58;100.00;100163.84;5089594;28;20035;-29
2023/01/22 03:29:26;;;;;;;18.42;6.18;;;;;;;9.40;100.00;100135.28;5089195;28;20020;-31
2023/01/22 03:31:52;;;;;;;11.70;4.75;;;;;;;9.63;100.00;100154.22;5089240;28;20024;-30
2023/01/22 03:34:19;;;;;;;15.63;7.30;;;;;;;9.51;100.00;100126.63;5089280;28;20028;-29
2023/01/22 03:36:45;;;;;;;8.98;3.70;;;;;;;9.44;100.00;100131.16;5070948;28;20056;-30
2023/01/22 03:39:12;;;;;;;14.60;4.82;;;;;;;9.53;100.00;100127.22;5088724;28;20460;-31
2023/01/22 03:41:37;;;;;;;16.33;5.68;;;;;;;9.52;100.00;100146.91;5089080;28;20028;-29
2023/01/22 03:44:03;;;;;;;9.38;4.07;;;;;;;9.41;100.00;100152.84;5071022;28;20032;-29
2023/01/22 03:46:29;;;;;;;14.00;7.75;;;;;;;9.49;100.00;100133.19;5071038;28;20055;-29
2023/01/22 03:48:55;;;;;;;14.48;6.85;;;;;;;9.31;100.00;100134.66;5089084;28;20102;-29
2023/01/22 03:51:21;;;;;;;23.40;11.63;;;;;;;9.25;100.00;100127.50;5088673;28;20122;-28
2023/01/22 03:53:48;;;;;;;12.13;5.00;;;;;;;9.33;100.00;100129.13;5088956;28;20399;-29
2023/01/22 03:56:19;;;;;;;25.83;12.45;;;;;;;9.31;100.00;100125.84;5070835;28;20035;-29
2023/01/22 03:58:45;;;;;;;22.80;11.02;;;;;;;9.50;100.00;100151.63;5089107;28;20039;-28
2023/01/22 04:01:14;;;;;;;18.27;11.32;;;;;;;9.55;100.00;100154.44;5088884;28;20028;-28
2023/01/22 04:03:39;;;;;;;27.70;15.93;;;;;;;9.53;100.00;100159.16;5089162;28;20039;-28
2023/01/22 04:06:07;;;;;;;22.13;11.15;;;;;;;9.48;100.00;100158.16;5088642;28;20476;-31
2023/01/22 04:08:34;;;;;;;27.80;14.65;;;;;;;9.44;100.00;100168.44;5089244;28;20024;-29
2023/01/22 04:11:00;;;;;;;20.65;11.68;;;;;;;9.33;100.00;100183.16;5088955;28;20789;-28
2023/01/22 04:13:28;;;;;;;17.70;8.50;;;;;;;9.32;100.00;100192.19;5089015;28;20028;-28
2023/01/22 04:15:53;;;;;;;168.90;89.27;;;;;;;9.60;100.00;100196.41;5088814;28;20047;-29
2023/01/22 04:18:19;;;;;;;101.53;58.50;;;;;;;9.40;100.00;100178.66;5088850;28;20487;-29
2023/01/22 04:20:46;;;;;;;66.30;43.50;;;;;;;9.35;100.00;100180.31;5088941;28;20028;-29
2023/01/22 04:23:11;;;;;;;162.80;108.65;;;;;;;9.50;100.00;100202.19;5088930;28;20016;-29
2023/01/22 04:25:37;;;;;;;70.97;51.30;;;;;;;9.40;100.00;100209.78;5088815;28;20063;-30
2023/01/22 04:28:03;;;;;;;57.65;41.88;;;;;;;9.20;100.00;100197.31;5088761;28;20031;-28
2023/01/22 04:30:29;;;;;;;89.80;66.30;;;;;;;9.43;100.00;100222.69;5070646;28;20054;-30
2023/01/22 04:32:54;;;;;;;46.10;29.33;;;;;;;9.54;100.00;100232.69;5088663;28;20576;-28
2023/01/22 04:35:20;;;;;;;46.65;35.28;;;;;;;9.47;100.00;100231.88;5088482;28;20626;-29
2023/01/22 04:37:45;;;;;;;69.03;61.60;;;;;;;9.55;100.00;100236.19;5088680;28;20492;-28
2023/01/22 04:40:11;;;;;;;54.80;48.05;;;;;;;9.40;100.00;100225.75;5088612;28;20111;-30
2023/01/22 04:42:36;;;;;;;31.77;21.92;;;;;;;9.44;100.00;100237.63;5070310;28;20035;-29
2023/01/22 04:45:03;;;;;;;31.95;27.85;;;;;;;9.43;100.00;100235.97;5070645;28;20036;-28
2023/01/22 04:47:28;;;;;;;26.13;20.52;;;;;;;9.62;100.00;100251.13;5088309;28;20028;-29
2023/01/22 04:49:53;;;;;;;29.45;18.38;;;;;;;9.45;100.00;100268.53;5088485;28;20043;-32
2023/01/22 04:52:19;;;;;;;24.00;16.05;;;;;;;9.37;100.00;100258.09;5073853;28;20494;-28
2023/01/22 04:54:44;;;;;;;23.55;12.90;;;;;;;9.48;100.00;100260.16;5074112;28;20036;-28
2023/01/22 04:57:10;;;;;;;24.58;12.02;;;;;;;9.47;100.00;100263.81;5073976;28;20024;-29
2023/01/22 04:59:36;;;;;;;33.72;19.20;;;;;;;9.51;100.00;100269.56;5092172;28;20039;-30
2023/01/22 05:02:01;;;;;;;31.13;18.80;;;;;;;9.39;100.00;100272.03;5092043;28;20027;-29
2023/01/22 05:04:27;;;;;;;21.38;10.43;;;;;;;9.40;100.00;100257.72;5092161;28;20627;-31
2023/01/22 05:06:52;;;;;;;22.65;10.90;;;;;;;9.52;100.00;100285.34;5092540;28;20028;-28
2023/01/22 05:09:18;;;;;;;20.88;13.93;;;;;;;9.52;100.00;100288.00;5092039;28;20758;-29
2023/01/22 05:11:43;;;;;;;18.83;9.48;;;;;;;9.60;100.00;100290.44;5092177;28;20032;-28
2023/01/22 05:14:09;;;;;;;20.23;11.45;;;;;;;9.54;100.00;100301.09;5092136;28;20483;-30
2023/01/22 05:16:34;;;;;;;19.55;8.25;;;;;;;9.34;100.00;100285.16;5091759;28;20034;-28
2023/01/22 05:18:59;;;;;;;19.05;8.63;;;;;;;9.20;100.00;100269.16;5091675;28;20036;-28
2023/01/22 05:21:25;;;;;;;17.73;7.82;;;;;;;9.44;100.00;100280.22;5091448;28;20024;-30
2023/01/22 05:23:50;;;;;;;22.15;9.05;;;;;;;9.38;100.00;100279.19;5073880;28;20054;-29
2023/01/22 05:26:16;;;;;;;21.05;8.35;;;;;;;9.28;100.00;100280.66;5091635;28;20415;-30
2023/01/22 05:28:41;;;;;;;17.48;7.43;;;;;;;9.53;100.00;100278.97;5091381;28;20116;-28
2023/01/22 05:31:09;;;;;;;16.08;7.40;;;;;;;9.50;100.00;100299.84;5091618;28;20020;-30
2023/01/22 05:33:34;;;;;;;26.27;12.63;;;;;;;9.33;100.00;100288.81;5090978;28;20613;-30
2023/01/22 05:36:01;;;;;;;23.35;11.95;;;;;;;9.44;100.00;100322.81;5091466;28;20135;-29
2023/01/22 05:38:29;;;;;;;26.48;11.15;;;;;;;9.37;100.00;100311.34;5073441;28;20700;-29
2023/01/22 05:40:55;;;;;;;36.35;23.38;;;;;;;9.29;100.00;100319.53;5073215;28;20077;-29
2023/01/22 05:43:20;;;;;;;29.52;16.90;;;;;;;9.27;100.00;100324.22;5091042;28;20498;-31
2023/01/22 05:45:46;;;;;;;24.60;14.38;;;;;;;9.40;100.00;100337.56;5091297;28;20798;-30
2023/01/22 05:48:11;;;;;;;16.55;8.93;;;;;;;9.46;100.00;100344.72;5091059;28;20027;-28
2023/01/22 05:50:37;;;;;;;23.60;11.82;;;;;;;9.42;100.00;100335.50;5090904;28;20084;-35
2023/01/22 05:53:03;;;;;;;21.25;10.50;;;;;;;9.15;100.00;100340.78;5073006;28;20063;-29
2023/01/22 05:55:28;;;;;;;18.23;8.50;;;;;;;9.18;100.00;100321.78;5090816;28;20020;-28
2023/01/22 05:57:54;;;;;;;18.17;8.23;;;;;;;9.32;100.00;100338.56;5091058;28;20039;-29
2023/01/22 06:00:20;;;;;;;17.65;8.32;;;;;;;9.33;100.00;100348.19;5072524;28;20406;-29
2023/01/22 06:02:45;;;;;;;19.45;9.65;;;;;;;9.48;100.00;100350.66;5090502;28;20032;-28
2023/01/22 06:05:10;;;;;;;16.85;9.30;;;;;;;9.51;100.00;100355.56;5072935;28;20028;-30
2023/01/22 06:07:36;;;;;;;27.67;15.43;;;;;;;9.70;100.00;100361.09;5072587;28;20017;-29
2023/01/22 06:10:01;;;;;;;43.90;23.95;;;;;;;9.73;100.00;100358.03;5091231;28;20088;-29
2023/01/22 06:12:27;;;;;;;231.93;89.32;;;;;;;9.83;100.00;100363.75;5090578;28;20035;-29
2023/01/22 06:14:53;;;;;;;124.88;62.10;;;;;;;9.87;100.00;100370.31;5090687;28;20053;-30
2023/01/22 06:17:19;;;;;;;918.63;448.27;;;;;;;9.69;100.00;100356.81;5090090;28;20031;-30
2023/01/22 06:19:44;;;;;;;739.13;452.17;;;;;;;9.57;100.00;100341.44;5072544;28;20411;-30
2023/01/22 06:22:09;;;;;;;185.48;122.45;;;;;;;9.51;100.00;100334.28;5072435;28;20061;-28
2023/01/22 06:24:35;;;;;;;47.35;31.02;;;;;;;9.47;100.00;100342.88;5090616;28;20735;-29
2023/01/22 06:27:00;;;;;;;46.78;36.58;;;;;;;9.63;100.00;100359.25;5072317;28;20035;-30
2023/01/22 06:29:25;;;;;;;21.85;13.52;;;;;;;9.57;100.00;100365.41;5090252;28;20119;-31
2023/01/22 06:31:51;;;;;;;18.13;7.03;;;;;;;9.58;100.00;100377.69;5071921;28;20066;-32
2023/01/22 06:34:16;;;;;;;24.45;11.65;;;;;;;9.32;100.00;100362.53;5090310;28;20021;-30
2023/01/22 06:36:42;;;;;;;15.57;6.85;;;;;;;9.28;100.00;100360.47;5090333;28;20438;-30
2023/01/22 06:39:07;;;;;;;18.27;8.73;;;;;;;9.34;100.00;100371.13;5090205;28;20029;-31
2023/01/22 06:41:32;;;;;;;18.50;9.50;;;;;;;9.50;100.00;100391.22;5071725;28;20042;-29
2023/01/22 06:43:58;;;;;;;25.95;14.82;;;;;;;9.37;100.00;100397.31;5090165;28;20020;-30
2023/01/22 06:46:23;;;;;;;14.27;7.65;;;;;;;9.31;100.00;100413.28;5071727;28;20038;-29
2023/01/22 06:48:49;;;;;;;16.35;10.25;;;;;;;9.20;100.00;100386.25;5071295;28;20054;-34
2023/01/22 06:51:14;;;;;;;14.70;10.77;;;;;;;9.35;100.00;100406.53;5089899;28;20039;-30
2023/01/22 06:53:40;;;;;;;19.90;10.10;;;;;;;9.30;100.00;100406.34;5089697;28;20384;-35
2023/01/22 06:56:06;;;;;;;19.25;9.02;;;;;;;9.18;100.00;100388.28;5070940;28;20115;-31
2023/01/22 06:58:31;;;;;;;15.98;9.23;;;;;;;9.10;100.00;100380.50;5071069;28;20028;-30
2023/01/22 07:01:01;;;;;;;20.00;11.98;;;;;;;9.30;100.00;100407.16;5089152;28;20030;-30
2023/01/22 07:03:26;;;;;;;14.80;6.43;;;;;;;9.32;100.00;100414.94;5071090;28;20050;-30
2023/01/22 07:05:57;;;;;;;19.25;9.50;;;;;;;9.19;100.00;100405.06;5071006;28;20028;-34
2023/01/22 07:08:22;;;;;;;21.63;11.63;;;;;;;9.37;100.00;100407.16;5071196;28;20397;-30
2023/01/22 07:10:48;;;;;;;28.58;13.80;;;;;;;9.38;100.00;100395.50;5062774;28;20038;-32
2023/01/22 07:13:14;;;;;;;40.10;16.40;;;;;;;9.49;100.00;100415.38;5088568;28;20024;-34
2023/01/22 07:15:40;;;;;;;36.10;15.15;;;;;;;9.41;100.00;100422.50;5089091;28;20031;-30
2023/01/22 07:18:05;;;;;;;32.83;13.35;;;;;;;9.40;100.00;100409.44;5089789;28;20020;-29
2023/01/22 07:20:31;;;;;;;23.35;11.80;;;;;;;9.43;100.00;100428.47;5089098;28;20040;-29
2023/01/22 07:22:58;;;;;;;18.65;10.30;;;;;;;9.38;100.00;100424.78;5088937;28;20023;-29
2023/01/22 07:25:25;;;;;;;19.98;10.82;;;;;;;9.48;100.00;100432.34;5070616;28;20028;-32
2023/01/22 07:27:50;;;;;;;25.13;12.40;;;;;;;9.37;100.00;100407.16;5088913;28;20097;-31
2023/01/22 07:30:16;;;;;;;14.90;7.03;;;;;;;9.30;100.00;100417.00;5088770;28;20483;-32
2023/01/22 07:32:42;;;;;;;19.98;8.18;;;;;;;9.23;100.00;100396.50;5089190;28;20069;-29
2023/01/22 07:35:08;;;;;;;29.92;18.02;;;;;;;9.37;100.00;100396.50;5089051;28;20029;-29
2023/01/22 07:37:33;;;;;;;21.90;11.52;;;;;;;9.29;100.00;100394.03;5070969;28;20078;-29
2023/01/22 07:39:59;;;;;;;18.85;9.10;;;;;;;9.29;100.00;100410.00;5089240;28;20063;-31
2023/01/22 07:42:24;;;;;;;15.77;8.40;;;;;;;9.34;100.00;100415.56;5070838;28;20087;-31
2023/01/22 07:44:49;;;;;;;26.38;16.45;;;;;;;9.25;100.00;100404.25;5070174;28;20032;-30
2023/01/22 07:47:15;;;;;;;26.13;14.70;;;;;;;9.07;100.00;100378.22;5088587;28;20082;-29
2023/01/22 07:49:40;;;;;;;21.13;10.95;;;;;;;9.45;100.00;100425.59;5088821;28;20455;-30
2023/01/22 07:52:06;;;;;;;14.20;8.27;;;;;;;9.44;100.00;100426.63;5088841;28;20024;-32
2023/01/22 07:54:35;;;;;;;16.70;9.73;;;;;;;9.29;100.00;100402.03;5088691;28;20024;-30
2023/01/22 07:57:01;;;;;;;36.58;20.90;;;;;;;9.60;100.00;100433.41;5086169;28;20028;-30
2023/01/22 07:59:26;;;;;;;33.05;20.35;;;;;;;9.49;100.00;100415.38;5088317;28;20028;-30
2023/01/22 08:01:53;;;;;;;58.72;42.88;;;;;;;9.53;100.00;100417.41;5088585;28;20024;-36
2023/01/22 08:04:19;;;;;;;31.33;19.23;;;;;;;9.48;100.00;100454.50;5086142;28;20412;-32
2023/01/22 08:06:44;;;;;;;16.90;10.65;;;;;;;9.55;100.00;100446.50;5088538;28;20024;-30
2023/01/22 08:09:10;;;;;;;20.40;12.35;;;;;;;9.75;100.00;100454.53;5088630;28;20031;-34
2023/01/22 08:11:35;;;;;;;43.97;26.42;;;;;;;9.63;100.00;100419.69;5088316;28;20032;-30
2023/01/22 08:14:00;;;;;;;20.35;7.32;;;;;;;9.65;100.00;100473.56;5088460;28;20028;-29
2023/01/22 08:16:26;;;;;;;18.60;8.90;;;;;;;9.62;100.00;100455.31;5088817;28;20035;-30
2023/01/22 08:18:52;;;;;;;17.55;8.38;;;;;;;9.96;100.00;100477.47;5088606;28;20101;-30
2023/01/22 08:21:18;;;;;;;23.95;11.75;;;;;;;9.83;100.00;100497.75;5088246;28;20035;-30
2023/01/22 08:23:43;;;;;;;18.95;10.38;;;;;;;9.81;100.00;100507.81;5088481;28;20017;-30
2023/01/22 08:26:09;;;;;;;21.10;12.77;;;;;;;9.82;100.00;100503.28;5071725;28;20024;-32
2023/01/22 08:28:35;;;;;;;25.10;12.73;;;;;;;9.83;100.00;100478.31;5091948;28;20774;-30
2023/01/22 08:31:02;;;;;;;20.77;9.15;;;;;;;9.83;100.00;100502.28;5074382;28;20058;-29
2023/01/22 08:33:31;;;;;;;21.25;10.63;;;;;;;9.44;100.00;100469.22;5091731;28;20024;-32
2023/01/22 08:35:56;;;;;;;59.40;35.97;;;;;;;9.72;100.00;100490.34;5074016;28;20044;-32
2023/01/22 08:38:22;;;;;;;64.20;32.90;;;;;;;9.52;100.00;100478.84;5092640;28;20105;-29
2023/01/22 08:40:51;;;;;;;42.40;25.45;;;;;;;9.52;100.00;100484.19;5092502;28;20474;-33
2023/01/22 08:43:17;;;;;;;24.95;16.63;;;;;;;9.78;100.00;100502.88;5074055;28;20028;-31
2023/01/22 08:45:46;;;;;;;19.30;9.80;;;;;;;9.98;100.00;100494.91;5074164;28;20036;-30
2023/01/22 08:48:11;;;;;;;18.95;9.50;;;;;;;9.91;100.00;100504.75;5074230;28;20075;-29
2023/01/22 08:50:37;;;;;;;18.38;10.40;;;;;;;9.85;100.00;100494.91;5092352;28;20447;-33
2023/01/22 08:53:02;;;;;;;27.17;18.63;;;;;;;9.72;100.00;100481.56;5092460;28;20032;-30
2023/01/22 08:55:28;;;;;;;18.83;10.20;;;;;;;9.58;100.00;100468.22;5090665;28;20039;-32
2023/01/22 08:57:55;;;;;;;21.95;13.57;;;;;;;9.76;100.00;100488.94;5092505;28;20119;-31
2023/01/22 09:00:21;;;;;;;34.22;23.10;;;;;;;9.82;100.00;100525.41;5092264;28;20461;-31
2023/01/22 09:02:47;;;;;;;22.35;14.18;;;;;;;9.83;100.00;100524.41;5092270;28;20020;-33
2023/01/22 09:05:12;;;;;;;29.75;19.05;;;;;;;9.76;100.00;100514.75;5092221;28;20411;-30
2023/01/22 09:07:38;;;;;;;34.20;21.60;;;;;;;9.97;100.00;100525.25;5091925;28;20038;-30
2023/01/22 09:10:06;;;;;;;34.53;21.83;;;;;;;9.91;100.00;100531.38;5091920;28;20027;-33
2023/01/22 09:12:33;;;;;;;37.42;21.30;;;;;;;9.52;100.00;100495.66;5073587;28;20027;-29
2023/01/22 09:14:58;;;;;;;36.45;20.23;;;;;;;9.60;100.00;100507.94;5073742;28;20035;-31
2023/01/22 09:17:24;;;;;;;100.50;52.13;;;;;;;9.81;100.00;100514.97;5091921;28;20024;-30
2023/01/22 09:19:49;;;;;;;89.53;53.83;;;;;;;9.74;100.00;100516.78;5073754;28;20403;-29
2023/01/22 09:22:15;;;;;;;24.35;13.45;;;;;;;9.70;100.00;100496.91;5091737;28;20036;-30
2023/01/22 09:24:40;;;;;;;34.03;20.88;;;;;;;9.74;100.00;100492.81;5091404;28;20106;-30
2023/01/22 09:27:07;;;;;;;21.65;12.35;;;;;;;9.54;100.00;100475.00;5091773;28;20054;-29
2023/01/22 09:29:33;;;;;;;27.20;16.70;;;;;;;9.58;100.00;100489.53;5091998;28;20593;-29
2023/01/22 09:31:58;;;;;;;21.70;11.93;;;;;;;9.61;100.00;100494.44;5091888;28;20476;-29
2023/01/22 09:34:24;;;;;;;16.85;10.43;;;;;;;9.72;100.00;100489.53;5091232;28;20039;-30
2023/01/22 09:36:49;;;;;;;40.45;23.85;;;;;;;9.71;100.00;100494.06;5072402;28;20059;-30
2023/01/22 09:39:15;;;;;;;33.22;18.08;;;;;;;9.62;100.00;100489.94;5091348;28;20031;-32
2023/01/22 09:41:47;;;;;;;44.05;27.35;;;;;;;9.69;100.00;100500.63;5091453;28;20020;-31
2023/01/22 09:44:30;;;;;;;48.03;28.38;;;;;;;9.75;100.00;100499.81;5073126;28;20381;-32
2023/01/22 09:47:03;;;;;;;37.58;21.30;;;;;;;9.86;100.00;100497.34;5091096;28;20048;-33
2023/01/22 09:49:36;;;;;;;35.00;22.55;;;;;;;9.84;100.00;100506.56;5090982;28;20020;-29
2023/01/22 09:52:04;;;;;;;29.25;18.90;;;;;;;9.63;100.00;100487.06;5072947;28;20036;-32
2023/01/22 09:54:30;;;;;;;35.30;19.55;;;;;;;9.80;100.00;100482.16;5072924;28;20027;-30
2023/01/22 09:56:59;;;;;;;35.13;20.20;;;;;;;9.96;100.00;100502.28;5091298;28;20035;-30
2023/01/22 09:59:27;;;;;;;27.23;15.52;;;;;;;9.89;100.00;100495.28;5091067;28;20392;-30
2023/01/22 10:01:56;;;;;;;27.77;16.75;;;;;;;10.05;100.00;100495.72;5090967;28;20024;-33
2023/01/22 10:04:43;;;;;;;23.67;15.63;;;;;;;9.83;100.00;100495.09;5072424;28;20028;-32
2023/01/22 10:07:20;;;;;;;31.13;22.70;;;;;;;9.92;100.00;100490.38;5072743;28;20027;-32
2023/01/22 10:09:52;;;;;;;37.03;22.75;;;;;;;9.94;100.00;100487.53;5072617;28;20088;-30
2023/01/22 10:12:17;;;;;;;23.92;14.82;;;;;;;10.08;100.00;100488.34;5090895;28;20031;-30
2023/01/22 10:14:43;;;;;;;22.73;11.75;;;;;;;10.16;100.00;100485.47;5090451;28;20028;-33
2023/01/22 10:17:21;;;;;;;22.65;13.23;;;;;;;10.24;100.00;100493.28;5090967;28;20165;-29
2023/01/22 10:19:49;;;;;;;;;;;;;;;10.44;100.00;100480.78;5091079;28;20024;-29
2023/01/22 10:22:23;;;;;;;22.08;13.43;;;;;;;10.50;100.00;100480.94;5072576;28;19911;-29
2023/01/22 10:24:49;;;;;;;14.15;8.77;;;;;;;10.53;100.00;100486.69;5090524;28;20024;-31
2023/01/22 10:27:17;;;;;;;16.23;10.65;;;;;;;10.86;100.00;100475.94;5071716;28;20027;-30
2023/01/22 10:29:58;;;;;;;17.42;12.55;;;;;;;10.92;100.00;100462.78;5090672;28;20479;-28
2023/01/22 10:32:26;;;;;;;17.30;10.73;;;;;;;11.05;100.00;100468.06;5072340;28;20032;-29
2023/01/22 10:34:56;;;;;;;15.02;9.20;;;;;;;11.17;100.00;100479.69;5072209;28;20028;-31
2023/01/22 10:37:21;;;;;;;17.98;9.68;;;;;;;10.83;100.00;100475.56;5071796;28;20056;-29
2023/01/22 10:39:49;;;;;;;13.18;8.90;;;;;;;11.19;100.00;100477.63;5090051;28;20046;-31
2023/01/22 10:42:27;;;;;;;26.10;17.00;;;;;;;11.18;100.00;100464.53;5090574;28;20050;-30
2023/01/22 10:45:14;;;;;;;18.90;10.88;;;;;;;11.13;100.00;100478.50;5090191;28;20040;-29
2023/01/22 10:47:41;;;;;;;12.23;6.95;;;;;;;10.97;100.00;100486.97;5071744;28;20497;-32
2023/01/22 10:50:16;;;;;;;15.88;9.55;;;;;;;11.03;100.00;100486.13;5054442;28;20031;-30
2023/01/22 10:52:53;;;;;;;14.27;8.32;;;;;;;11.00;100.00;100467.88;5072037;28;20567;-31
2023/01/22 10:55:25;;;;;;;15.25;8.88;;;;;;;11.12;100.00;100484.06;5071574;28;20028;-31
2023/01/22 10:57:58;;;;;;;16.73;7.63;;;;;;;11.08;100.00;100456.97;5071815;28;20035;-30
2023/01/22 11:00:32;;;;;;;11.25;7.78;;;;;;;11.18;100.00;100478.69;5071737;28;20027;-32
2023/01/22 11:02:58;;;;;;;17.95;9.95;;;;;;;11.26;100.00;100491.78;5071962;28;20024;-31
2023/01/22 11:05:29;;;;;;;15.25;8.35;;;;;;;11.39;100.00;100487.41;5089525;28;20027;-31
2023/01/22 11:08:02;;;;;;;18.45;10.98;;;;;;;11.00;100.00;100481.22;5071540;28;20058;-29
2023/01/22 11:10:59;;;;;;;18.20;10.63;;;;;;;10.93;100.00;100483.09;5089798;28;20107;-33
2023/01/22 11:13:50;;;;;;;12.45;7.60;;;;;;;11.15;100.00;100508.47;5082755;28;20044;-30
2023/01/22 11:16:22;;;;;;;18.80;16.13;;;;;;;11.02;100.00;100489.84;5068472;28;20524;-31
2023/01/22 11:19:08;;;;;;;13.80;9.93;;;;;;;11.17;100.00;100501.06;5089718;28;20024;-29
2023/01/22 11:21:44;;;;;;;11.25;6.50;;;;;;;11.31;100.00;100507.16;5089634;28;20558;-29
2023/01/22 11:24:21;;;;;;;11.05;7.43;;;;;;;11.57;100.00;100516.91;5071631;28;20512;-29